Time;durP1;ratioP1;P1;durP2;ratioP2;P2;SDS_P1;SDS_P2;PMS_P1;PMS_P2;Temp;Humidity;BMP_temperature;BMP_pressure;BME280_temperature;BME280_humidity;BME280_pressure;Samples;Min_cycle;Max_cycle;Signal;HPM_P1;HPM_P2
2022/02/02 00:02:35;;;;;;;85.32;12.73;;;6.00;99.90;;;;;;5072472;28;20354;-51
2022/02/02 00:05:22;;;;;;;88.45;12.52;;;6.10;99.90;;;;;;5071048;28;20112;-50
2022/02/02 00:13:00;;;;;;;109.18;14.48;;;6.20;99.90;;;;;;5074588;28;20066;-50
2022/02/02 00:20:49;;;;;;;100.45;13.23;;;6.30;99.90;;;;;;5072872;28;20031;-51
2022/02/02 00:23:18;;;;;;;75.32;11.32;;;6.30;99.90;;;;;;5057199;28;20500;-52
2022/02/02 00:25:51;;;;;;;63.85;9.50;;;6.30;99.90;;;;;;5065693;28;20091;-51
2022/02/02 00:28:21;;;;;;;77.03;10.98;;;6.30;99.90;;;;;;5072968;28;20443;-52
2022/02/02 00:30:47;;;;;;;75.90;10.75;;;6.30;99.90;;;;;;5073789;28;20493;-52
2022/02/02 00:33:23;;;;;;;73.20;12.20;;;6.30;99.90;;;;;;5073257;28;20067;-50
2022/02/02 00:36:05;;;;;;;91.28;11.88;;;6.30;99.90;;;;;;5070817;28;20095;-51
2022/02/02 00:38:30;;;;;;;73.38;11.35;;;6.30;99.90;;;;;;5059616;28;20052;-50
2022/02/02 00:40:56;;;;;;;76.68;12.35;;;6.30;99.90;;;;;;5073566;28;20452;-51
2022/02/02 00:43:22;;;;;;;70.55;10.20;;;6.20;99.90;;;;;;5072589;28;20020;-50
2022/02/02 00:45:49;;;;;;;61.38;9.55;;;6.10;99.90;;;;;;5073305;28;20036;-50
2022/02/02 00:48:17;;;;;;;73.82;10.98;;;6.00;99.90;;;;;;5071360;28;20057;-50
2022/02/02 00:50:44;;;;;;;74.70;10.15;;;5.90;99.90;;;;;;5072769;28;20028;-50
2022/02/02 00:53:10;;;;;;;69.93;10.60;;;5.80;99.90;;;;;;5073317;28;20119;-50
2022/02/02 00:55:37;;;;;;;60.63;9.95;;;5.70;99.90;;;;;;5072638;28;20485;-50
2022/02/02 00:58:03;;;;;;;68.45;10.68;;;5.60;99.90;;;;;;5065491;28;20056;-50
2022/02/02 01:00:30;;;;;;;63.75;10.50;;;5.60;99.90;;;;;;5065027;28;20029;-51
2022/02/02 01:02:55;;;;;;;76.65;9.52;;;5.60;99.90;;;;;;5063408;28;20028;-52
2022/02/02 01:05:21;;;;;;;92.13;11.00;;;5.60;99.90;;;;;;5072020;28;20028;-51
2022/02/02 01:08:15;;;;;;;73.45;9.07;;;5.60;99.90;;;;;;5073263;28;20036;-50
2022/02/02 01:21:43;;;;;;;80.95;13.57;;;5.70;99.90;;;;;;5066764;28;20129;-51
2022/02/02 01:29:36;;;;;;;74.70;12.48;;;5.80;99.90;;;;;;5072109;28;20101;-54
2022/02/02 01:32:02;;;;;;;80.85;11.45;;;5.90;99.90;;;;;;5071775;28;20036;-49
2022/02/02 01:34:28;;;;;;;74.40;11.40;;;5.90;99.90;;;;;;5072538;28;20504;-49
2022/02/02 01:36:54;;;;;;;87.55;11.23;;;5.90;99.90;;;;;;5071030;28;20482;-49
2022/02/02 01:39:24;;;;;;;71.57;11.63;;;5.90;99.90;;;;;;5062366;28;20025;-50
2022/02/02 01:41:50;;;;;;;70.20;10.65;;;6.00;99.90;;;;;;5071799;28;20389;-52
2022/02/02 01:44:34;;;;;;;71.35;8.68;;;6.00;99.90;;;;;;5071940;28;20024;-51
2022/02/02 01:47:01;;;;;;;65.65;9.68;;;5.90;99.90;;;;;;5070851;28;20111;-53
2022/02/02 01:54:54;;;;;;;61.97;7.72;;;5.90;99.90;;;;;;5072229;28;20060;-49
2022/02/02 01:59:48;;;;;;;51.60;7.57;;;5.90;99.90;;;;;;5063872;28;20085;-49
2022/02/02 02:02:13;;;;;;;66.35;8.65;;;5.90;99.90;;;;;;5071057;28;20478;-52
2022/02/02 02:04:39;;;;;;;64.28;9.73;;;5.90;99.90;;;;;;5072114;28;20038;-49
2022/02/02 02:07:06;;;;;;;53.53;7.80;;;5.90;99.90;;;;;;5070946;28;20085;-54
2022/02/02 02:09:32;;;;;;;53.95;8.07;;;5.90;99.90;;;;;;5072228;28;20112;-52
2022/02/02 02:12:05;;;;;;;59.10;7.72;;;6.00;99.90;;;;;;5071308;28;20025;-52
2022/02/02 02:17:09;;;;;;;44.17;7.43;;;5.90;99.90;;;;;;5070517;28;20377;-52
2022/02/02 02:19:38;;;;;;;52.15;7.28;;;5.80;99.90;;;;;;5071776;28;20052;-52
2022/02/02 02:22:09;;;;;;;64.75;7.72;;;5.80;99.90;;;;;;5071135;28;20048;-52
2022/02/02 02:24:37;;;;;;;49.88;9.82;;;5.80;99.90;;;;;;5071688;28;20086;-53
2022/02/02 02:27:03;;;;;;;42.88;5.95;;;5.80;99.90;;;;;;5068181;28;20025;-53
2022/02/02 02:32:31;;;;;;;49.97;7.55;;;5.80;99.90;;;;;;5071750;28;20107;-49
2022/02/02 02:38:02;;;;;;;48.22;7.15;;;5.80;99.90;;;;;;5071426;28;20104;-48
2022/02/02 02:56:35;;;;;;;42.55;6.70;;;5.90;99.90;;;;;;5066573;28;20043;-48
2022/02/02 02:59:06;;;;;;;67.47;8.65;;;5.90;99.90;;;;;;5069242;28;20029;-51
2022/02/02 03:02:04;;;;;;;59.92;7.90;;;6.00;99.90;;;;;;5070771;28;20033;-50
2022/02/02 03:32:06;;;;;;;50.20;8.38;;;6.00;99.90;;;;;;5068730;28;20122;-52
2022/02/02 03:56:40;;;;;;;44.85;7.35;;;6.10;99.90;;;;;;5070266;28;20043;-49
2022/02/02 04:07:05;;;;;;;43.83;6.53;;;6.00;99.90;;;;;;5070302;28;20032;-51
2022/02/02 04:09:35;;;;;;;52.88;6.55;;;6.00;99.90;;;;;;5070529;28;20040;-50
2022/02/02 04:12:14;;;;;;;63.13;7.22;;;6.00;99.90;;;;;;5074246;28;20029;-50
2022/02/02 05:11:22;;;;;;;54.55;9.00;;;5.90;99.90;;;;;;5073284;28;20024;-55
2022/02/02 05:14:56;;;;;;;;;;;5.80;99.90;;;;;;5072752;28;20029;-53
2022/02/02 05:19:51;;;;;;;49.72;8.63;;;5.70;99.90;;;;;;5072388;28;20028;-52
2022/02/02 05:41:32;;;;;;;56.70;6.40;;;6.30;99.90;;;;;;5049622;28;20070;-50
2022/02/02 05:44:20;;;;;;;46.40;6.50;;;6.20;99.90;;;;;;5049334;28;20104;-51
2022/02/02 05:51:55;;;;;;;44.38;6.35;;;6.20;99.90;;;;;;5048990;28;20116;-53
2022/02/02 05:54:20;;;;;;;40.13;5.90;;;6.20;99.90;;;;;;5049748;28;20024;-52
2022/02/02 05:56:48;;;;;;;43.38;4.78;;;6.00;99.90;;;;;;5062764;28;20035;-51
2022/02/02 05:59:18;;;;;;;39.28;6.03;;;5.90;99.90;;;;;;5058718;28;20056;-53
2022/02/02 06:01:51;;;;;;;41.67;5.57;;;5.80;99.90;;;;;;5059536;28;20035;-50
2022/02/02 06:04:21;;;;;;;36.30;5.30;;;5.80;99.90;;;;;;5070448;28;20068;-49
2022/02/02 06:06:48;;;;;;;41.83;4.93;;;5.80;99.90;;;;;;5060875;28;20043;-53
2022/02/02 06:09:14;;;;;;;35.72;4.63;;;5.70;99.90;;;;;;5063205;28;20102;-52
2022/02/02 06:11:40;;;;;;;31.55;5.15;;;5.70;99.90;;;;;;5062322;28;20494;-51
2022/02/02 06:14:06;;;;;;;32.97;5.88;;;5.70;99.90;;;;;;5069741;28;20029;-49
2022/02/02 06:16:32;;;;;;;35.65;5.00;;;5.70;99.90;;;;;;5057354;28;20761;-53
2022/02/02 06:19:01;;;;;;;41.83;4.70;;;5.70;99.90;;;;;;5054595;28;20028;-51
2022/02/02 06:21:30;;;;;;;39.97;5.47;;;5.60;99.90;;;;;;5069992;28;20031;-49
2022/02/02 06:24:07;;;;;;;31.50;4.70;;;5.60;99.90;;;;;;5068394;28;20029;-51
2022/02/02 06:26:35;;;;;;;35.33;4.78;;;5.60;99.90;;;;;;5057479;28;20036;-49
2022/02/02 06:29:05;;;;;;;40.00;5.13;;;5.60;99.90;;;;;;5059003;28;20437;-51
2022/02/02 06:31:35;;;;;;;39.83;5.93;;;5.60;99.90;;;;;;5051483;28;20575;-53
2022/02/02 06:34:02;;;;;;;32.05;4.68;;;5.60;99.90;;;;;;5050339;28;20036;-49
2022/02/02 06:36:32;;;;;;;32.45;4.97;;;5.60;99.90;;;;;;5069127;28;20060;-49
2022/02/02 06:38:59;;;;;;;36.35;5.80;;;5.60;99.90;;;;;;5071611;28;20116;-51
2022/02/02 06:41:27;;;;;;;52.33;5.40;;;5.60;99.90;;;;;;5058154;28;20037;-51
2022/02/02 06:43:56;;;;;;;36.75;5.32;;;5.60;99.90;;;;;;5057947;28;20035;-52
2022/02/02 06:46:27;;;;;;;39.15;6.65;;;5.60;99.90;;;;;;5050041;28;20448;-50
2022/02/02 06:48:52;;;;;;;43.00;6.25;;;5.60;99.90;;;;;;5049990;28;20068;-49
2022/02/02 06:51:49;;;;;;;34.53;5.25;;;5.60;99.90;;;;;;5047958;28;20154;-51
2022/02/02 06:54:24;;;;;;;36.15;6.25;;;5.60;99.90;;;;;;5048540;28;20071;-49
2022/02/02 06:57:09;;;;;;;31.17;4.93;;;5.60;99.90;;;;;;5056550;28;20036;-49
2022/02/02 06:59:51;;;;;;;31.92;5.55;;;5.60;99.90;;;;;;5052923;28;20115;-52
2022/02/02 07:13:49;;;;;;;38.08;4.93;;;5.60;99.90;;;;;;5052304;28;20036;-52
2022/02/02 07:16:28;;;;;;;52.90;10.30;;;5.60;99.90;;;;;;5050879;28;20049;-51
2022/02/02 07:27:05;;;;;;;44.88;6.05;;;5.90;99.90;;;;;;5051472;28;20036;-50
2022/02/02 07:35:11;;;;;;;40.72;6.18;;;5.70;99.90;;;;;;5049249;28;20494;-51
2022/02/02 07:37:49;;;;;;;50.90;6.95;;;5.60;99.90;;;;;;5049390;28;20151;-50
2022/02/02 07:40:16;;;;;;;49.20;6.55;;;5.60;99.90;;;;;;5047841;28;21719;-50
2022/02/02 07:42:48;;;;;;;45.78;6.18;;;5.50;99.90;;;;;;5047577;28;20086;-50
2022/02/02 07:45:14;;;;;;;47.67;7.00;;;5.50;99.90;;;;;;5049371;28;20039;-53
2022/02/02 07:47:46;;;;;;;51.45;6.63;;;5.50;99.90;;;;;;5051023;28;20571;-50
2022/02/02 07:50:13;;;;;;;42.55;6.30;;;5.50;99.90;;;;;;5053735;28;20036;-51
2022/02/02 07:52:41;;;;;;;47.40;6.03;;;5.60;99.90;;;;;;5053491;28;20028;-52
2022/02/02 07:55:09;;;;;;;46.28;6.28;;;5.60;99.90;;;;;;5053630;28;20040;-54
2022/02/02 07:57:36;;;;;;;48.85;7.55;;;5.60;99.90;;;;;;5064305;28;20160;-50
2022/02/02 08:00:09;;;;;;;39.78;6.10;;;5.70;99.90;;;;;;5055429;28;20578;-53
2022/02/02 08:05:17;;;;;;;45.35;6.53;;;5.70;99.90;;;;;;5053221;28;20036;-53
2022/02/02 08:08:14;;;;;;;46.22;6.15;;;5.70;99.90;;;;;;5054268;28;20393;-53
2022/02/02 08:10:30;;;;;;;43.00;5.63;;;5.70;99.90;;;;;;5054289;28;20498;-52
2022/02/02 08:13:00;;;;;;;32.45;5.03;;;5.70;99.90;;;;;;5057516;28;20051;-51
2022/02/02 08:15:30;;;;;;;41.67;6.13;;;5.70;99.90;;;;;;5053417;28;20040;-51
2022/02/02 08:17:56;;;;;;;37.97;5.72;;;5.80;99.90;;;;;;5063936;28;20025;-52
2022/02/02 08:20:24;;;;;;;36.88;6.18;;;5.80;99.90;;;;;;5071158;28;20056;-50
2022/02/02 08:22:50;;;;;;;40.53;5.18;;;5.80;99.90;;;;;;5070897;28;20099;-50
2022/02/02 08:25:34;;;;;;;38.40;5.75;;;5.80;99.90;;;;;;5071181;28;20029;-51
2022/02/02 08:28:03;;;;;;;45.95;5.35;;;5.80;99.90;;;;;;5066393;28;20519;-50
2022/02/02 08:30:30;;;;;;;37.45;5.28;;;5.80;99.90;;;;;;5061647;28;20508;-50
2022/02/02 08:32:59;;;;;;;34.20;5.55;;;5.80;99.90;;;;;;5060493;28;20456;-49
2022/02/02 08:35:26;;;;;;;43.55;6.70;;;5.80;99.90;;;;;;5058313;28;20091;-53
2022/02/02 08:40:46;;;;;;;44.10;5.38;;;5.90;99.90;;;;;;5068641;28;20036;-51
2022/02/02 08:43:17;;;;;;;33.78;5.82;;;5.90;99.90;;;;;;5060047;28;20094;-49
2022/02/02 08:45:45;;;;;;;48.78;5.95;;;5.90;99.90;;;;;;5068880;28;20059;-50
2022/02/02 08:48:16;;;;;;;33.13;6.18;;;5.90;99.90;;;;;;5070482;28;20082;-53
2022/02/02 08:53:16;;;;;;;46.13;5.15;;;6.00;99.90;;;;;;5062500;28;20043;-50
2022/02/02 08:58:36;;;;;;;43.45;5.43;;;6.00;99.90;;;;;;5068810;28;20051;-50
2022/02/02 09:01:09;;;;;;;50.20;6.03;;;6.00;99.90;;;;;;5058608;28;20108;-49
2022/02/02 09:06:20;;;;;;;43.50;6.22;;;6.10;99.90;;;;;;5059114;28;20134;-49
2022/02/02 09:08:48;;;;;;;41.97;6.10;;;6.10;99.90;;;;;;5066522;28;20036;-52
2022/02/02 09:35:43;;;;;;;33.60;5.63;;;6.40;99.90;;;;;;5026240;28;20048;-49
2022/02/02 09:38:08;;;;;;;38.20;6.22;;;6.50;99.90;;;;;;5067100;28;20043;-50
2022/02/02 09:43:21;;;;;;;34.03;5.07;;;6.50;99.90;;;;;;5066363;28;20108;-53
2022/02/02 09:45:52;;;;;;;26.77;5.40;;;6.50;99.90;;;;;;5068579;28;20370;-53
2022/02/02 09:48:27;;;;;;;33.45;5.38;;;6.60;99.90;;;;;;5069342;28;20110;-52
2022/02/02 09:50:59;;;;;;;35.95;5.22;;;6.70;99.90;;;;;;5058634;28;20125;-54
2022/02/02 09:53:41;;;;;;;41.53;5.80;;;6.80;99.90;;;;;;5070225;28;20025;-53
2022/02/02 10:04:35;;;;;;;32.30;4.78;;;7.00;99.90;;;;;;5056129;28;20588;-52
2022/02/02 10:13:35;;;;;;;38.22;6.50;;;7.10;99.90;;;;;;5060008;28;20099;-53
2022/02/02 10:16:01;;;;;;;35.00;6.00;;;7.30;99.90;;;;;;5062628;28;20060;-54
2022/02/02 10:18:36;;;;;;;28.27;4.65;;;7.20;99.90;;;;;;5068842;28;20020;-52
2022/02/02 10:21:02;;;;;;;27.08;4.63;;;7.20;99.90;;;;;;5065332;28;20541;-53
2022/02/02 10:23:34;;;;;;;43.22;5.43;;;7.20;99.90;;;;;;5069342;28;20037;-55
2022/02/02 10:26:20;;;;;;;32.20;4.70;;;7.10;99.90;;;;;;5068148;28;20024;-52
2022/02/02 10:28:47;;;;;;;31.17;4.95;;;7.20;99.90;;;;;;5066640;28;20397;-53
2022/02/02 10:31:14;;;;;;;31.70;3.78;;;7.20;99.90;;;;;;5067334;28;20032;-53
2022/02/02 10:33:40;;;;;;;30.05;4.93;;;7.10;99.90;;;;;;5068931;28;20024;-53
2022/02/02 10:36:20;;;;;;;31.23;4.97;;;7.10;99.90;;;;;;5067228;28;20036;-52
2022/02/02 10:39:07;;;;;;;36.15;4.30;;;7.10;99.90;;;;;;5062096;28;20115;-53
2022/02/02 10:41:59;;;;;;;34.67;4.93;;;7.20;99.90;;;;;;5060837;28;20162;-54
2022/02/02 10:44:38;;;;;;;31.97;4.37;;;7.20;99.90;;;;;;5064511;28;20440;-53
2022/02/02 10:47:27;;;;;;;21.58;3.65;;;7.20;99.90;;;;;;5065473;28;20115;-51
2022/02/02 10:53:27;;;;;;;42.42;4.53;;;7.30;99.90;;;;;;5067889;28;20051;-50
2022/02/02 10:56:16;;;;;;;27.13;5.10;;;7.30;99.90;;;;;;5067037;28;20033;-54
2022/02/02 11:06:45;;;;;;;39.75;5.10;;;7.70;99.90;;;;;;5065918;28;20035;-50
2022/02/02 11:09:14;;;;;;;28.30;4.72;;;7.80;99.90;;;;;;5066155;28;20028;-49
2022/02/02 11:11:42;;;;;;;27.05;4.43;;;7.90;99.90;;;;;;5057032;28;20528;-51
2022/02/02 11:14:28;;;;;;;29.98;4.00;;;8.10;99.90;;;;;;5069093;28;20037;-49
2022/02/02 11:17:01;;;;;;;21.80;4.03;;;8.00;99.90;;;;;;5059617;28;20358;-50
2022/02/02 11:19:32;;;;;;;30.58;4.25;;;8.10;99.90;;;;;;5053027;28;20036;-49
2022/02/02 11:22:41;;;;;;;24.05;3.05;;;7.90;99.90;;;;;;5059247;28;20123;-51
2022/02/02 11:25:10;;;;;;;25.42;4.35;;;7.80;99.90;;;;;;5056364;28;20428;-52
2022/02/02 11:27:40;;;;;;;28.25;5.03;;;7.80;99.90;;;;;;5064019;28;20377;-51
2022/02/02 11:30:08;;;;;;;37.20;5.35;;;7.80;99.90;;;;;;5061626;28;20066;-50
2022/02/02 11:32:43;;;;;;;27.98;4.32;;;7.90;99.90;;;;;;5067836;28;20396;-51
2022/02/02 11:38:07;;;;;;;25.48;4.57;;;7.90;99.90;;;;;;5067142;28;20103;-48
2022/02/02 11:40:42;;;;;;;26.13;3.78;;;7.90;99.90;;;;;;5057336;28;20040;-51
2022/02/02 11:43:14;;;;;;;21.75;3.42;;;7.90;99.90;;;;;;5067152;28;20107;-52
2022/02/02 11:46:01;;;;;;;29.70;4.88;;;7.80;99.90;;;;;;5067887;28;20033;-51
2022/02/02 11:48:56;;;;;;;30.15;4.22;;;7.80;99.90;;;;;;5068261;28;20048;-53
2022/02/02 11:51:38;;;;;;;26.10;3.88;;;7.80;99.90;;;;;;5068550;28;20036;-50
2022/02/02 11:54:04;;;;;;;;;;;7.80;99.90;;;;;;5069287;28;20102;-50
2022/02/02 11:56:31;;;;;;;29.70;4.78;;;7.70;99.90;;;;;;5067619;28;20017;-51
2022/02/02 11:58:58;;;;;;;26.67;4.53;;;7.60;99.90;;;;;;5066893;28;20410;-52
2022/02/02 12:01:42;;;;;;;22.40;4.50;;;7.80;99.90;;;;;;5057574;28;20041;-54
2022/02/02 12:04:44;;;;;;;92.63;35.47;;;8.10;99.90;;;;;;5060638;28;20036;-52
2022/02/02 12:07:15;;;;;;;28.80;4.10;;;8.30;99.90;;;;;;5060813;28;20119;-53
2022/02/02 12:09:56;;;;;;;29.60;4.88;;;8.20;99.90;;;;;;5064170;28;20032;-50
2022/02/02 12:21:25;;;;;;;42.40;5.43;;;8.10;99.90;;;;;;5063436;28;20078;-55
2022/02/02 12:48:03;;;;;;;18.05;3.38;;;9.10;99.90;;;;;;5069425;28;20033;-55
2022/02/02 12:56:36;;;;;;;28.45;3.60;;;10.60;99.90;;;;;;5069519;28;20515;-49
2022/02/02 12:59:23;;;;;;;18.80;3.47;;;10.40;99.90;;;;;;5032302;28;20043;-52
2022/02/02 13:02:12;;;;;;;22.40;3.45;;;10.60;99.90;;;;;;5070866;28;20056;-50
2022/02/02 13:04:39;;;;;;;20.10;3.13;;;10.30;99.90;;;;;;5068366;28;20405;-50
2022/02/02 13:07:19;;;;;;;27.52;4.43;;;9.60;99.90;;;;;;5069969;28;20048;-54
2022/02/02 13:09:50;;;;;;;21.52;3.10;;;9.60;99.90;;;;;;5063222;28;20494;-53
2022/02/02 13:12:23;;;;;;;23.95;4.18;;;9.90;99.90;;;;;;5069944;28;20398;-54
2022/02/02 13:17:55;;;;;;;22.38;3.22;;;9.20;99.90;;;;;;5070362;28;20385;-53
2022/02/02 13:23:32;;;;;;;26.10;2.95;;;8.90;99.90;;;;;;5064718;28;20158;-52
2022/02/02 13:26:05;;;;;;;22.77;3.15;;;8.90;99.90;;;;;;5066989;28;20017;-54
2022/02/02 13:28:52;;;;;;;21.65;3.15;;;8.90;99.90;;;;;;5065565;28;20453;-54
2022/02/02 13:31:41;;;;;;;25.23;3.85;;;8.80;99.90;;;;;;5064894;28;20035;-55
2022/02/02 13:34:29;;;;;;;19.88;3.83;;;8.70;99.90;;;;;;5066007;28;20035;-52
2022/02/02 13:53:56;;;;;;;16.83;3.55;;;9.70;99.90;;;;;;5051370;28;20601;-55
2022/02/02 14:09:57;;;;;;;25.63;3.57;;;8.80;99.90;;;;;;5070232;28;20498;-54
2022/02/02 14:31:23;;;;;;;21.35;3.03;;;9.20;99.90;;;;;;5068867;28;20043;-50
2022/02/02 14:33:53;;;;;;;16.17;2.88;;;8.80;99.90;;;;;;5069198;28;20032;-51
2022/02/02 14:36:25;;;;;;;18.13;3.10;;;8.40;99.90;;;;;;5067211;28;20025;-51
2022/02/02 14:38:58;;;;;;;;;;;8.00;99.90;;;;;;5069573;28;20021;-54
2022/02/02 14:44:09;;;;;;;20.05;3.33;;;7.80;99.90;;;;;;5069895;28;20064;-52
2022/02/02 14:47:22;;;;;;;15.50;2.75;;;7.70;99.90;;;;;;5068240;28;20067;-54
2022/02/02 14:49:34;;;;;;;24.27;3.75;;;7.60;99.90;;;;;;5052875;28;20037;-53
2022/02/02 14:52:16;;;;;;;12.57;2.15;;;7.50;99.90;;;;;;5069341;28;20033;-53
2022/02/02 14:55:03;;;;;;;20.75;3.13;;;7.40;99.90;;;;;;5060296;28;20501;-53
2022/02/02 15:29:37;;;;;;;29.35;3.65;;;6.10;99.90;;;;;;5069449;28;20071;-50
2022/02/02 15:32:03;;;;;;;26.73;4.20;;;5.90;99.90;;;;;;5060673;28;20169;-48
2022/02/02 15:34:38;;;;;;;21.60;3.00;;;5.80;99.90;;;;;;5069936;28;20036;-55
2022/02/02 15:40:14;;;;;;;26.70;4.43;;;5.70;99.90;;;;;;5069749;28;20083;-49
2022/02/02 15:43:07;;;;;;;18.30;3.67;;;5.80;99.90;;;;;;5070368;28;20059;-51
2022/02/02 15:58:51;;;;;;;25.05;4.38;;;6.00;99.90;;;;;;5070628;28;20424;-52
2022/02/02 16:04:25;;;;;;;28.77;5.63;;;6.00;99.90;;;;;;5008262;28;20368;-50
2022/02/02 16:06:52;;;;;;;32.22;4.35;;;6.00;99.90;;;;;;5000490;28;20136;-51
2022/02/02 16:09:26;;;;;;;41.47;5.20;;;6.00;99.90;;;;;;5034003;28;20037;-52
2022/02/02 16:12:12;;;;;;;36.10;4.32;;;6.00;99.90;;;;;;5079687;28;20055;-50
2022/02/02 16:14:53;;;;;;;46.20;6.63;;;6.00;99.90;;;;;;5068323;28;20052;-49
2022/02/02 16:17:37;;;;;;;33.17;3.95;;;6.00;99.90;;;;;;5072525;28;20075;-48
2022/02/02 16:36:44;;;;;;;36.03;4.82;;;5.90;99.90;;;;;;5061632;28;20508;-55
2022/02/02 16:39:20;;;;;;;31.20;3.95;;;5.90;99.90;;;;;;5068943;28;20036;-51
2022/02/02 16:44:30;;;;;;;40.88;5.30;;;5.80;99.90;;;;;;5066178;28;20357;-56
2022/02/02 16:46:57;;;;;;;31.15;4.72;;;5.90;99.90;;;;;;5061777;28;20037;-52
2022/02/02 16:49:23;;;;;;;40.95;6.70;;;5.80;99.90;;;;;;5062522;28;20070;-56
2022/02/02 16:51:48;;;;;;;38.15;5.85;;;5.80;99.90;;;;;;5071820;28;20071;-54
2022/02/02 16:54:22;;;;;;;34.45;5.15;;;5.80;99.90;;;;;;5065690;28;20508;-50
2022/02/02 16:57:04;;;;;;;35.72;5.75;;;5.80;99.90;;;;;;5060757;28;20509;-48
2022/02/02 17:34:32;;;;;;;39.40;5.53;;;5.40;99.90;;;;;;5068416;28;20043;-54
2022/02/02 17:39:54;;;;;;;38.63;5.55;;;5.40;99.90;;;;;;5062389;28;20067;-53
2022/02/02 17:45:05;;;;;;;37.08;4.97;;;5.40;99.90;;;;;;5059561;28;20053;-53
2022/02/02 18:19:35;;;;;;;45.08;5.90;;;5.10;99.90;;;;;;5069726;28;20038;-55
2022/02/02 18:22:01;;;;;;;30.77;4.82;;;5.10;99.90;;;;;;5070489;28;20075;-55
2022/02/02 18:24:37;;;;;;;43.75;6.15;;;5.10;99.90;;;;;;5070050;28;20436;-53
2022/02/02 18:27:12;;;;;;;36.33;6.13;;;5.10;99.90;;;;;;5069719;28;20036;-54
2022/02/02 18:32:15;;;;;;;52.20;6.82;;;5.10;99.90;;;;;;5070503;28;20039;-55
2022/02/02 18:38:17;;;;;;;42.80;8.23;;;5.10;99.90;;;;;;5069400;28;20435;-54
2022/02/02 18:41:39;;;;;;;59.40;10.80;;;5.00;99.90;;;;;;5069805;28;20021;-53
2022/02/02 18:46:18;;;;;;;43.78;9.85;;;5.00;99.90;;;;;;5069377;28;20028;-50
2022/02/02 18:51:16;;;;;;;40.22;6.45;;;5.10;99.90;;;;;;5070185;28;20035;-53
2022/02/02 18:53:59;;;;;;;37.88;6.35;;;5.00;99.90;;;;;;5070116;28;20051;-55
2022/02/02 18:56:39;;;;;;;45.17;6.38;;;5.00;99.90;;;;;;5068968;28;20091;-55
2022/02/02 19:02:02;;;;;;;38.22;6.07;;;4.90;99.90;;;;;;5069835;28;20044;-54
2022/02/02 19:07:27;;;;;;;37.20;5.78;;;4.80;99.90;;;;;;5069180;28;20042;-54
2022/02/02 19:40:17;;;;;;;39.58;5.93;;;4.40;99.90;;;;;;5071666;28;20021;-56
2022/02/02 19:56:22;;;;;;;44.80;6.90;;;4.20;99.90;;;;;;5072806;28;20150;-54
2022/02/02 20:01:51;;;;;;;35.80;5.93;;;4.20;99.90;;;;;;5073067;28;20028;-53
2022/02/02 20:07:06;;;;;;;37.13;7.28;;;4.20;99.90;;;;;;5063591;28;20115;-54
2022/02/02 20:12:05;;;;;;;30.90;5.78;;;4.20;99.90;;;;;;5063720;28;20071;-56
2022/02/02 20:14:30;;;;;;;32.90;5.40;;;4.20;99.90;;;;;;5071542;28;20033;-51
2022/02/02 20:16:56;;;;;;;40.88;6.45;;;4.20;99.90;;;;;;5072214;28;20037;-55
2022/02/02 20:19:22;;;;;;;31.50;5.90;;;4.20;99.90;;;;;;5067529;28;20028;-56
2022/02/02 20:21:52;;;;;;;46.95;6.75;;;4.20;99.90;;;;;;5072461;28;20028;-54
2022/02/02 20:24:22;;;;;;;55.42;7.78;;;4.10;99.90;;;;;;5071845;28;20023;-53
2022/02/02 20:26:49;;;;;;;38.78;6.45;;;4.10;99.90;;;;;;5070965;28;20044;-49
2022/02/02 20:29:16;;;;;;;45.85;5.70;;;4.10;99.90;;;;;;5072221;28;20025;-49
2022/02/02 20:31:42;;;;;;;29.45;6.45;;;4.00;99.90;;;;;;5063393;28;20033;-51
2022/02/02 20:34:09;;;;;;;46.00;6.00;;;4.00;99.90;;;;;;5072812;28;20078;-50
2022/02/02 20:36:39;;;;;;;59.22;6.88;;;4.00;99.90;;;;;;5070782;28;20039;-55
2022/02/02 20:39:20;;;;;;;46.05;6.63;;;4.00;99.90;;;;;;5068146;28;20051;-53
2022/02/02 20:41:46;;;;;;;33.95;6.03;;;4.00;99.90;;;;;;5072403;28;20035;-54
2022/02/02 20:44:24;;;;;;;48.45;7.53;;;3.90;99.90;;;;;;5070637;28;20107;-53
2022/02/02 21:10:31;;;;;;;54.58;7.35;;;3.80;99.90;;;;;;5071062;28;20024;-51
2022/02/02 21:15:42;;;;;;;36.60;6.15;;;3.80;99.90;;;;;;5068824;28;20047;-50
2022/02/02 21:18:14;;;;;;;40.70;7.72;;;3.80;99.90;;;;;;5071464;28;20032;-50
2022/02/02 21:20:48;;;;;;;42.05;6.07;;;3.80;99.90;;;;;;5062552;28;20493;-49
2022/02/02 21:28:32;;;;;;;30.85;5.72;;;3.80;99.90;;;;;;5071287;28;20178;-50
2022/02/02 21:30:58;;;;;;;37.22;6.18;;;3.80;99.90;;;;;;5070292;28;20390;-50
2022/02/02 21:33:25;;;;;;;42.80;6.90;;;3.70;99.90;;;;;;5070873;28;20131;-53
2022/02/02 21:35:51;;;;;;;45.33;6.95;;;3.70;99.90;;;;;;5068697;28;20504;-50
2022/02/02 21:38:33;;;;;;;43.55;6.97;;;3.70;99.90;;;;;;5063089;28;20036;-50
2022/02/02 21:41:00;;;;;;;41.83;7.05;;;3.60;99.90;;;;;;5068987;28;20021;-50
2022/02/02 21:43:27;;;;;;;38.15;5.95;;;3.70;99.90;;;;;;5063867;28;20110;-50
2022/02/02 21:45:55;;;;;;;42.00;6.85;;;3.70;99.90;;;;;;5067238;28;20490;-52
2022/02/02 21:48:22;;;;;;;45.90;6.57;;;3.70;99.90;;;;;;5068650;28;20036;-51
2022/02/02 21:50:53;;;;;;;44.47;6.90;;;3.70;99.90;;;;;;5062594;28;20386;-53
2022/02/02 21:53:19;;;;;;;47.30;7.60;;;3.60;99.90;;;;;;5063319;28;20382;-52
2022/02/02 21:55:45;;;;;;;33.55;6.43;;;3.60;99.90;;;;;;5054629;28;20045;-52
2022/02/02 21:58:11;;;;;;;33.97;5.78;;;3.60;99.90;;;;;;5060956;28;20031;-53
2022/02/02 22:00:38;;;;;;;52.42;7.45;;;3.60;99.90;;;;;;5070154;28;20384;-52
2022/02/02 22:03:04;;;;;;;38.03;5.75;;;3.60;99.90;;;;;;5070604;28;20026;-54
2022/02/02 22:05:29;;;;;;;49.20;7.00;;;3.60;99.90;;;;;;5068245;28;20043;-53
2022/02/02 22:07:55;;;;;;;34.95;6.07;;;3.50;99.90;;;;;;5063380;28;20041;-51
2022/02/02 22:10:21;;;;;;;42.38;7.22;;;3.60;99.90;;;;;;5069574;28;20024;-51
2022/02/02 22:12:47;;;;;;;48.53;7.80;;;3.60;99.90;;;;;;5062417;28;20028;-52
2022/02/02 22:15:20;;;;;;;48.28;6.88;;;3.60;99.90;;;;;;5069162;28;20052;-51
2022/02/02 22:17:46;;;;;;;46.10;6.88;;;3.60;99.90;;;;;;5070302;28;20032;-54
2022/02/02 22:20:14;;;;;;;51.75;6.13;;;3.60;99.90;;;;;;5069752;28;20104;-54
2022/02/02 22:22:41;;;;;;;55.10;6.75;;;3.60;99.90;;;;;;5070446;28;20093;-52
2022/02/02 22:25:08;;;;;;;42.85;6.40;;;3.60;99.90;;;;;;5068772;28;20028;-53
2022/02/02 22:27:34;;;;;;;46.00;7.25;;;3.60;99.90;;;;;;5063927;28;20528;-54
2022/02/02 22:29:59;;;;;;;44.00;6.03;;;3.70;99.90;;;;;;5070133;28;20115;-51
2022/02/02 22:32:25;;;;;;;52.63;7.38;;;3.70;99.90;;;;;;5052521;28;20043;-52
2022/02/02 22:34:51;;;;;;;36.35;6.20;;;3.70;99.90;;;;;;5050524;28;20398;-52
2022/02/02 22:37:17;;;;;;;34.33;5.80;;;3.70;99.90;;;;;;5056793;28;20402;-54
2022/02/02 22:39:43;;;;;;;53.65;7.07;;;3.70;99.90;;;;;;5066254;28;20082;-50
2022/02/02 22:42:11;;;;;;;34.95;7.10;;;3.70;99.90;;;;;;5064341;28;20492;-51
2022/02/02 22:44:37;;;;;;;51.72;6.63;;;3.70;99.90;;;;;;5069118;28;20064;-51
2022/02/02 22:47:06;;;;;;;40.75;6.40;;;3.80;99.90;;;;;;5063859;28;20052;-49
2022/02/02 22:49:34;;;;;;;51.40;7.22;;;3.80;99.90;;;;;;5069312;28;20406;-49
2022/02/02 22:52:00;;;;;;;37.97;5.65;;;3.80;99.90;;;;;;5068563;28;20032;-49
2022/02/02 22:54:25;;;;;;;45.13;6.93;;;3.90;99.90;;;;;;5068435;28;20477;-49
2022/02/02 22:56:51;;;;;;;41.83;6.20;;;3.80;99.90;;;;;;5066362;28;20044;-49
2022/02/02 22:59:17;;;;;;;36.45;6.57;;;3.90;99.90;;;;;;5059329;28;20055;-51
2022/02/02 23:01:44;;;;;;;34.60;6.35;;;3.90;99.90;;;;;;5069763;28;20036;-51
2022/02/02 23:04:10;;;;;;;46.40;5.75;;;3.90;99.90;;;;;;5069915;28;20008;-50
2022/02/02 23:06:37;;;;;;;30.90;5.82;;;3.90;99.90;;;;;;5067313;28;20067;-49
2022/02/02 23:09:05;;;;;;;44.00;7.43;;;3.90;99.90;;;;;;5056677;28;20029;-49
2022/02/02 23:11:30;;;;;;;26.85;6.05;;;3.90;99.90;;;;;;5064833;28;20054;-49
2022/02/02 23:13:58;;;;;;;35.75;6.05;;;3.90;99.90;;;;;;5060943;28;20553;-49
2022/02/02 23:16:30;;;;;;;43.50;6.57;;;3.90;99.90;;;;;;5067113;28;20439;-49
2022/02/02 23:18:56;;;;;;;44.42;7.38;;;4.00;99.90;;;;;;5069430;28;20433;-48
2022/02/02 23:21:23;;;;;;;43.35;6.75;;;3.90;99.90;;;;;;5068480;28;20113;-50
2022/02/02 23:23:52;;;;;;;28.67;6.30;;;3.90;99.90;;;;;;5061193;28;20075;-50
2022/02/02 23:26:18;;;;;;;26.73;5.88;;;4.00;99.90;;;;;;5067438;28;20181;-48
2022/02/02 23:28:47;;;;;;;32.30;6.60;;;4.00;99.90;;;;;;5060952;28;20067;-50
2022/02/02 23:31:15;;;;;;;31.27;5.85;;;4.00;99.90;;;;;;5068815;28;20028;-50
2022/02/02 23:33:43;;;;;;;34.03;6.20;;;4.00;99.90;;;;;;5069173;28;20159;-51
2022/02/02 23:36:09;;;;;;;36.95;5.90;;;3.90;99.90;;;;;;5066943;28;20039;-50
2022/02/02 23:38:35;;;;;;;36.55;6.30;;;4.00;99.90;;;;;;5061005;28;20020;-52
2022/02/02 23:43:27;;;;;;;50.67;7.85;;;3.90;99.90;;;;;;5068727;28;20020;-52
2022/02/02 23:46:18;;;;;;;36.28;6.97;;;3.90;99.90;;;;;;5056017;28;20029;-52
2022/02/02 23:48:47;;;;;;;51.80;7.00;;;4.00;99.90;;;;;;5059835;28;20056;-50